createdAt,value
2022-11-14T00:02:21.525Z,9.27
2022-11-14T00:05:10.420Z,9.57
2022-11-14T00:07:57.502Z,8.50
2022-11-14T00:10:46.685Z,7.97
2022-11-14T00:13:34.805Z,8.10
2022-11-14T00:16:21.477Z,8.20
2022-11-14T00:19:08.802Z,8.27
2022-11-14T00:21:55.792Z,8.60
2022-11-14T00:24:42.549Z,8.50
2022-11-14T00:27:29.405Z,10.63
2022-11-14T00:30:17.865Z,9.93
2022-11-14T00:33:05.153Z,10.00
2022-11-14T00:35:54.102Z,10.37
2022-11-14T00:38:40.757Z,8.87
2022-11-14T00:41:27.413Z,8.50
2022-11-14T00:44:14.120Z,9.17
2022-11-14T00:47:02.076Z,8.73
2022-11-14T00:49:48.730Z,9.00
2022-11-14T00:52:35.427Z,10.27
2022-11-14T00:55:22.161Z,9.73
2022-11-14T00:58:08.808Z,9.63
2022-11-14T01:00:55.818Z,8.73
2022-11-14T01:03:50.541Z,8.03
2022-11-14T01:06:42.310Z,8.77
2022-11-14T01:09:29.192Z,9.87
2022-11-14T01:12:16.161Z,11.23
2022-11-14T01:15:03.197Z,12.93
2022-11-14T01:17:49.935Z,13.43
2022-11-14T01:20:40.503Z,14.20
2022-11-14T01:23:27.207Z,13.63
2022-11-14T01:26:16.101Z,13.30
2022-11-14T01:29:02.695Z,13.47
2022-11-14T01:31:49.655Z,14.07
2022-11-14T01:34:36.318Z,14.60
2022-11-14T01:37:24.354Z,12.77
2022-11-14T01:40:13.137Z,13.57
2022-11-14T01:43:27.833Z,13.50
2022-11-14T01:46:19.714Z,14.00
2022-11-14T01:49:15.075Z,14.20
2022-11-14T01:52:06.379Z,13.50
2022-11-14T01:54:59.583Z,13.47
2022-11-14T01:57:49.432Z,13.27
2022-11-14T02:00:36.115Z,14.13
2022-11-14T02:03:22.988Z,13.53
2022-11-14T02:06:15.176Z,13.07
2022-11-14T02:09:05.129Z,13.73
2022-11-14T02:11:56.552Z,12.60
2022-11-14T02:14:46.167Z,13.40
2022-11-14T02:17:34.168Z,13.83
2022-11-14T02:20:28.389Z,13.17
2022-11-14T02:23:17.765Z,12.57
2022-11-14T02:26:04.789Z,12.23
2022-11-14T02:28:52.109Z,12.90
2022-11-14T02:31:39.872Z,12.60
2022-11-14T02:34:26.741Z,12.47
2022-11-14T02:37:14.678Z,12.57
2022-11-14T02:40:01.387Z,12.73
2022-11-14T02:42:47.999Z,12.03
2022-11-14T02:45:34.803Z,11.50
2022-11-14T02:48:21.613Z,12.23
2022-11-14T02:51:08.221Z,12.00
2022-11-14T02:53:56.526Z,11.97
2022-11-14T02:56:43.507Z,11.80
2022-11-14T02:59:30.099Z,11.43
2022-11-14T03:02:16.714Z,11.30
2022-11-14T03:05:04.966Z,12.00
2022-11-14T03:07:56.814Z,11.33
2022-11-14T03:10:44.944Z,10.63
2022-11-14T03:13:31.569Z,10.27
2022-11-14T03:16:18.502Z,11.90
2022-11-14T03:19:05.465Z,11.37
2022-11-14T03:21:52.178Z,11.70
2022-11-14T03:24:38.790Z,11.30
2022-11-14T03:27:27.223Z,11.00
2022-11-14T03:30:14.927Z,10.97
2022-11-14T03:33:01.887Z,10.93
2022-11-14T03:35:50.848Z,10.60
2022-11-14T03:38:38.338Z,10.40
2022-11-14T03:41:25.173Z,10.37
2022-11-14T03:44:13.308Z,11.60
2022-11-14T03:46:59.940Z,10.67
2022-11-14T03:49:46.601Z,10.30
2022-11-14T03:52:33.769Z,10.70
2022-11-14T03:55:20.591Z,10.10
2022-11-14T03:58:07.512Z,10.53
2022-11-14T04:00:56.465Z,10.43
2022-11-14T04:03:43.723Z,10.80
2022-11-14T04:06:30.487Z,9.93
2022-11-14T04:09:17.401Z,10.10
2022-11-14T04:12:04.249Z,10.63
2022-11-14T04:14:50.783Z,10.03
2022-11-14T04:17:39.968Z,10.37
2022-11-14T04:20:27.275Z,9.77
2022-11-14T04:23:14.310Z,10.40
2022-11-14T04:26:00.999Z,10.00
2022-11-14T04:28:47.512Z,10.93
2022-11-14T04:31:34.215Z,9.43
2022-11-14T04:34:22.346Z,10.00
2022-11-14T04:37:09.533Z,9.80
2022-11-14T04:39:58.726Z,10.40
2022-11-14T04:42:45.521Z,10.13
2022-11-14T04:45:32.308Z,10.53
2022-11-14T04:48:19.815Z,9.50
2022-11-14T04:51:08.224Z,10.77
2022-11-14T04:53:55.174Z,9.20
2022-11-14T04:56:41.931Z,9.97
2022-11-14T04:59:28.597Z,10.83
2022-11-14T05:02:15.233Z,10.73
2022-11-14T05:05:25.812Z,10.20
2022-11-14T05:08:14.143Z,10.33
2022-11-14T05:11:01.496Z,10.33
2022-11-14T05:13:48.740Z,9.73
2022-11-14T05:16:35.609Z,10.63
2022-11-14T05:19:22.315Z,10.30
2022-11-14T05:22:08.997Z,10.53
2022-11-14T05:24:57.008Z,10.57
2022-11-14T05:27:43.817Z,9.83
2022-11-14T05:30:30.460Z,9.87
2022-11-14T05:33:17.170Z,9.50
2022-11-14T05:36:04.922Z,10.07
2022-11-14T05:38:51.906Z,9.73
2022-11-14T05:41:39.954Z,9.80
2022-11-14T05:44:27.091Z,10.50
2022-11-14T05:47:14.053Z,10.13
2022-11-14T05:50:00.684Z,9.40
2022-11-14T05:52:51.115Z,9.77
2022-11-14T05:55:37.649Z,9.33
2022-11-14T05:58:25.676Z,9.20
2022-11-14T06:01:15.329Z,9.20
2022-11-14T06:04:02.340Z,8.57
2022-11-14T06:06:49.195Z,8.53
2022-11-14T06:09:36.245Z,8.93
2022-11-14T06:12:23.029Z,8.90
2022-11-14T06:15:11.635Z,9.27
2022-11-14T06:17:58.880Z,8.80
2022-11-14T06:20:45.792Z,9.00
2022-11-14T06:23:32.762Z,8.77
2022-11-14T06:26:24.626Z,9.27
2022-11-14T06:29:12.036Z,8.90
2022-11-14T06:32:00.404Z,9.13
2022-11-14T06:34:47.227Z,8.23
2022-11-14T06:37:34.008Z,7.90
2022-11-14T06:40:20.988Z,9.30
2022-11-14T06:43:07.686Z,7.73
2022-11-14T06:45:55.485Z,8.03
2022-11-14T06:48:45.456Z,8.87
2022-11-14T06:51:32.633Z,8.60
2022-11-14T06:54:19.601Z,8.00
2022-11-14T06:57:07.014Z,8.10
2022-11-14T06:59:53.609Z,8.27
2022-11-14T07:02:40.232Z,8.93
2022-11-14T07:05:30.830Z,14.93
2022-11-14T07:08:21.056Z,11.90
2022-11-14T07:11:10.205Z,10.03
2022-11-14T07:13:59.426Z,12.67
2022-11-14T07:16:46.911Z,11.40
2022-11-14T07:19:33.679Z,9.23
2022-11-14T07:22:21.602Z,9.50
2022-11-14T07:25:09.540Z,8.67
2022-11-14T07:27:58.698Z,9.17
2022-11-14T07:30:45.779Z,9.27
2022-11-14T07:33:33.557Z,9.50
2022-11-14T07:36:20.345Z,8.83
2022-11-14T07:39:08.920Z,11.50
2022-11-14T07:41:55.901Z,8.37
2022-11-14T07:44:42.703Z,11.70
2022-11-14T07:47:30.660Z,9.73
2022-11-14T07:50:20.369Z,11.23
2022-11-14T07:53:07.583Z,10.00
2022-11-14T07:55:55.725Z,8.77
2022-11-14T07:58:43.214Z,9.57
2022-11-14T08:01:30.041Z,8.30
2022-11-14T08:04:16.820Z,8.77
2022-11-14T08:07:03.876Z,8.97
2022-11-14T08:09:50.404Z,8.77
2022-11-14T08:12:39.334Z,8.87
2022-11-14T08:15:26.554Z,12.70
2022-11-14T08:18:13.233Z,9.97
2022-11-14T08:20:59.979Z,8.77
2022-11-14T08:23:46.727Z,8.60
2022-11-14T08:26:34.525Z,10.90
2022-11-14T08:29:23.082Z,9.20
2022-11-14T08:32:09.743Z,11.13
2022-11-14T08:34:56.383Z,9.23
2022-11-14T08:37:42.959Z,8.43
2022-11-14T08:40:29.650Z,10.47
2022-11-14T08:43:16.259Z,8.27
2022-11-14T08:46:06.617Z,9.83
2022-11-14T08:48:53.343Z,8.27
2022-11-14T08:51:40.237Z,8.17
2022-11-14T08:54:27.151Z,8.70
2022-11-14T08:57:15.304Z,8.70
2022-11-14T09:00:01.984Z,9.20
2022-11-14T09:02:49.976Z,9.07
2022-11-14T09:05:41.991Z,7.83
2022-11-14T09:08:29.921Z,8.70
2022-11-14T09:11:19.283Z,8.87
2022-11-14T09:14:06.133Z,9.13
2022-11-14T09:16:52.770Z,10.07
2022-11-14T09:19:40.687Z,8.63
2022-11-14T09:22:27.577Z,9.20
2022-11-14T09:25:14.523Z,8.23
2022-11-14T09:28:06.893Z,8.63
2022-11-14T09:30:53.555Z,8.67
2022-11-14T09:33:41.029Z,8.40
2022-11-14T09:36:29.068Z,9.03
2022-11-14T09:39:15.710Z,8.87
2022-11-14T09:42:20.565Z,9.00
2022-11-14T09:45:13.569Z,9.33
2022-11-14T09:48:10.541Z,10.47
2022-11-14T09:51:08.172Z,8.10
2022-11-14T09:54:07.597Z,8.53
2022-11-14T09:56:55.128Z,9.13
2022-11-14T09:59:41.808Z,8.17
2022-11-14T10:02:59.685Z,7.43
2022-11-14T10:06:13.720Z,7.90
2022-11-14T10:09:32.780Z,7.47
2022-11-14T10:12:25.571Z,7.50
2022-11-14T10:15:20.916Z,7.30
2022-11-14T10:18:22.299Z,7.30
2022-11-14T10:21:30.305Z,6.27
2022-11-14T10:24:48.798Z,6.47
2022-11-14T10:27:44.661Z,6.13
2022-11-14T10:30:40.964Z,6.53
2022-11-14T10:33:40.694Z,6.10
2022-11-14T10:36:48.637Z,6.43
2022-11-14T10:39:44.137Z,6.20
2022-11-14T10:42:36.169Z,6.00
2022-11-14T10:45:28.802Z,6.43
2022-11-14T10:48:22.174Z,5.67
2022-11-14T10:51:18.832Z,5.77
2022-11-14T10:54:13.656Z,5.90
2022-11-14T10:57:01.918Z,5.63
2022-11-14T10:59:48.704Z,6.17
2022-11-14T11:02:51.029Z,5.40
2022-11-14T11:05:49.910Z,6.40
2022-11-14T11:09:01.217Z,7.50
2022-11-14T11:11:57.023Z,7.43
2022-11-14T11:14:46.868Z,6.90
2022-11-14T11:17:38.645Z,6.60
2022-11-14T11:20:37.245Z,7.17
2022-11-14T11:23:28.750Z,6.53
2022-11-14T11:26:22.475Z,6.37
2022-11-14T11:29:18.196Z,6.73
2022-11-14T11:32:09.324Z,6.07
2022-11-14T11:34:58.045Z,5.77
2022-11-14T11:37:48.881Z,6.93
2022-11-14T11:40:35.724Z,7.07
2022-11-14T11:43:40.498Z,6.63
2022-11-14T11:46:36.227Z,6.53
2022-11-14T11:49:38.477Z,5.30
2022-11-14T11:52:35.418Z,6.10
2022-11-14T11:55:26.077Z,5.90
2022-11-14T11:58:22.187Z,6.10
2022-11-14T12:01:11.872Z,4.65
2022-11-14T12:03:58.966Z,3.93
2022-11-14T12:06:55.674Z,3.87
2022-11-14T12:10:09.228Z,3.60
2022-11-14T12:13:46.049Z,4.07
2022-11-14T12:17:05.740Z,3.90
2022-11-14T12:20:21.591Z,4.37
2022-11-14T12:23:35.575Z,3.77
2022-11-14T12:26:41.742Z,3.80
2022-11-14T12:29:49.928Z,3.63
2022-11-14T12:32:43.283Z,3.30
2022-11-14T12:35:33.072Z,3.17
2022-11-14T12:38:23.006Z,2.85
2022-11-14T12:41:11.279Z,2.75
2022-11-14T12:44:34.860Z,3.00
2022-11-14T12:47:24.514Z,2.88
2022-11-14T12:50:40.891Z,2.55
2022-11-14T12:53:45.196Z,2.78
2022-11-14T12:57:09.795Z,2.60
2022-11-14T13:00:08.272Z,2.45
2022-11-14T13:03:21.377Z,2.63
2022-11-14T13:06:12.549Z,2.40
2022-11-14T13:09:32.260Z,2.97
2022-11-14T13:12:49.935Z,2.87
2022-11-14T13:16:06.678Z,3.40
2022-11-14T13:19:14.553Z,2.70
2022-11-14T13:22:37.934Z,2.83
2022-11-14T13:25:26.610Z,3.20
2022-11-14T13:28:48.450Z,2.80
2022-11-14T13:31:49.378Z,2.73
2022-11-14T13:34:47.657Z,2.77
2022-11-14T13:37:55.789Z,2.70
2022-11-14T13:40:53.025Z,2.60
2022-11-14T13:43:58.422Z,2.40
2022-11-14T13:47:08.986Z,2.47
2022-11-14T13:50:04.259Z,2.63
2022-11-14T13:52:51.330Z,2.80
2022-11-14T13:55:56.513Z,2.50
2022-11-14T13:59:03.198Z,2.80
2022-11-14T14:02:16.128Z,2.90
2022-11-14T14:05:17.576Z,3.03
2022-11-14T14:08:27.991Z,2.60
2022-11-14T14:11:42.751Z,2.93
2022-11-14T14:15:06.146Z,2.50
2022-11-14T14:18:06.745Z,2.67
2022-11-14T14:21:03.789Z,2.70
2022-11-14T14:24:03.315Z,1.90
2022-11-14T14:27:04.799Z,2.03
2022-11-14T14:30:03.804Z,2.40
2022-11-14T14:33:11.204Z,2.13
2022-11-14T14:35:58.109Z,2.20
2022-11-14T14:38:45.362Z,2.10
2022-11-14T14:41:37.207Z,1.90
2022-11-14T14:44:29.803Z,2.07
2022-11-14T14:47:18.317Z,2.10
2022-11-14T14:50:09.482Z,2.40
2022-11-14T14:52:58.560Z,1.90
2022-11-14T14:55:54.539Z,2.30
2022-11-14T14:58:41.196Z,2.10
2022-11-14T15:01:34.633Z,2.47
2022-11-14T15:04:31.149Z,1.70
2022-11-14T15:07:25.676Z,1.70
2022-11-14T15:10:24.520Z,1.50
2022-11-14T15:13:19.039Z,1.90
2022-11-14T15:16:08.428Z,2.53
2022-11-14T15:18:58.611Z,2.10
2022-11-14T15:21:45.304Z,1.63
2022-11-14T15:24:32.907Z,1.60
2022-11-14T15:27:21.560Z,1.90
2022-11-14T15:30:24.045Z,2.00
2022-11-14T15:33:30.558Z,1.80
2022-11-14T15:36:19.108Z,1.70
2022-11-14T15:39:24.004Z,1.80
2022-11-14T15:42:14.912Z,1.77
2022-11-14T15:45:01.709Z,1.50
2022-11-14T15:47:50.358Z,1.67
2022-11-14T15:50:37.447Z,1.80
2022-11-14T15:53:30.322Z,1.70
2022-11-14T15:56:17.221Z,1.53
2022-11-14T15:59:06.004Z,1.67
2022-11-14T16:01:57.926Z,1.33
2022-11-14T16:04:47.741Z,1.33
2022-11-14T16:07:35.414Z,1.73
2022-11-14T16:10:27.342Z,1.40
2022-11-14T16:13:13.946Z,1.60
2022-11-14T16:16:00.670Z,1.40
2022-11-14T16:18:47.366Z,1.80
2022-11-14T16:21:34.359Z,1.60
2022-11-14T16:24:23.938Z,1.63
2022-11-14T16:27:12.299Z,1.43
2022-11-14T16:29:59.420Z,1.60
2022-11-14T16:32:48.980Z,1.57
2022-11-14T16:35:35.762Z,1.57
2022-11-14T16:38:22.696Z,1.80
2022-11-14T16:41:10.872Z,1.57
2022-11-14T16:43:59.342Z,2.40
2022-11-14T16:46:47.002Z,1.70
2022-11-14T16:49:34.262Z,1.80
2022-11-14T16:52:21.282Z,1.97
2022-11-14T16:55:09.023Z,2.10
2022-11-14T16:57:55.974Z,2.10
2022-11-14T17:00:45.734Z,1.90
2022-11-14T17:03:34.411Z,2.90
2022-11-14T17:06:21.393Z,2.70
2022-11-14T17:09:08.459Z,1.90
2022-11-14T17:12:04.675Z,2.43
2022-11-14T17:14:51.368Z,3.93
2022-11-14T17:17:39.415Z,5.50
2022-11-14T17:20:26.124Z,7.40
2022-11-14T17:23:12.683Z,4.80
2022-11-14T17:26:03.382Z,5.17
2022-11-14T17:28:50.548Z,3.50
2022-11-14T17:31:39.524Z,2.40
2022-11-14T17:34:29.991Z,2.87
2022-11-14T17:37:17.005Z,2.23
2022-11-14T17:40:03.992Z,2.13
2022-11-14T17:42:52.285Z,1.60
2022-11-14T17:45:41.233Z,1.97
2022-11-14T17:48:29.079Z,1.80
2022-11-14T17:51:18.170Z,2.03
2022-11-14T17:54:05.422Z,2.10
2022-11-14T17:56:54.895Z,1.73
2022-11-14T17:59:42.337Z,1.97
2022-11-14T18:02:29.122Z,2.10
2022-11-14T18:05:16.914Z,1.93
2022-11-14T18:08:05.543Z,2.00
2022-11-14T18:10:53.296Z,1.80
2022-11-14T18:13:40.805Z,2.20
2022-11-14T18:16:44.432Z,1.90
2022-11-14T18:19:34.492Z,1.90
2022-11-14T18:22:20.996Z,2.30
2022-11-14T18:25:10.317Z,2.20
2022-11-14T18:27:57.022Z,2.20
2022-11-14T18:30:43.546Z,2.30
2022-11-14T18:33:30.196Z,2.53
2022-11-14T18:36:17.731Z,2.33
2022-11-14T18:39:08.330Z,1.67
2022-11-14T18:41:56.504Z,2.07
2022-11-14T18:44:43.189Z,2.00
2022-11-14T18:47:31.134Z,2.23
2022-11-14T18:50:18.349Z,2.17
2022-11-14T18:53:04.858Z,1.93
2022-11-14T18:55:53.171Z,2.33
2022-11-14T18:58:42.527Z,2.00
2022-11-14T19:01:32.136Z,2.10
2022-11-14T19:04:19.767Z,1.87
2022-11-14T19:07:06.516Z,1.97
2022-11-14T19:09:53.427Z,2.13
2022-11-14T19:12:40.042Z,2.10
2022-11-14T19:15:28.090Z,2.00
2022-11-14T19:18:14.753Z,2.37
2022-11-14T19:21:03.918Z,2.13
2022-11-14T19:23:51.371Z,2.53
2022-11-14T19:26:38.254Z,2.80
2022-11-14T19:29:25.423Z,2.70
2022-11-14T19:32:13.638Z,2.87
2022-11-14T19:35:00.279Z,4.33
2022-11-14T19:37:47.015Z,4.43
2022-11-14T19:40:33.821Z,4.20
2022-11-14T19:43:21.214Z,4.33
2022-11-14T19:46:08.807Z,5.33
2022-11-14T19:48:58.267Z,4.10
2022-11-14T19:51:46.385Z,2.80
2022-11-14T19:54:33.961Z,2.53
2022-11-14T19:57:20.696Z,2.10
2022-11-14T20:00:09.223Z,2.50
2022-11-14T20:02:56.090Z,6.37
2022-11-14T20:05:44.315Z,6.30
2022-11-14T20:08:31.178Z,4.23
2022-11-14T20:11:18.208Z,4.10
2022-11-14T20:14:05.771Z,30.10
2022-11-14T20:16:52.629Z,12.37
2022-11-14T20:19:39.336Z,8.63
2022-11-14T20:22:27.617Z,7.60
2022-11-14T20:25:16.260Z,5.33
2022-11-14T20:28:03.360Z,3.40
2022-11-14T20:30:50.096Z,2.90
2022-11-14T20:33:39.803Z,2.83
2022-11-14T20:36:39.055Z,2.80
2022-11-14T20:39:35.916Z,2.70
2022-11-14T20:42:22.508Z,2.30
2022-11-14T20:45:10.532Z,2.60
2022-11-14T20:47:57.407Z,2.13
2022-11-14T20:50:44.013Z,2.50
2022-11-14T20:53:31.400Z,2.43
2022-11-14T20:56:20.725Z,2.00
2022-11-14T20:59:08.436Z,2.30
2022-11-14T21:01:55.189Z,2.47
2022-11-14T21:04:45.921Z,2.30
2022-11-14T21:07:32.655Z,2.40
2022-11-14T21:10:37.796Z,2.73
2022-11-14T21:13:43.484Z,2.40
2022-11-14T21:16:33.388Z,2.63
2022-11-14T21:19:20.750Z,2.53
2022-11-14T21:22:07.561Z,2.33
2022-11-14T21:24:54.292Z,2.30
2022-11-14T21:27:40.927Z,2.87
2022-11-14T21:30:31.726Z,2.73
2022-11-14T21:33:18.467Z,2.50
2022-11-14T21:36:22.899Z,2.80
2022-11-14T21:39:14.862Z,2.70
2022-11-14T21:42:02.320Z,2.40
2022-11-14T21:44:50.051Z,2.60
2022-11-14T21:47:38.286Z,2.33
2022-11-14T21:50:24.887Z,2.90
2022-11-14T21:53:16.135Z,2.43
2022-11-14T21:56:11.827Z,2.70
2022-11-14T21:59:13.889Z,2.40
2022-11-14T22:02:18.601Z,3.07
2022-11-14T22:05:08.074Z,3.23
2022-11-14T22:07:54.686Z,3.37
2022-11-14T22:10:41.412Z,3.53
2022-11-14T22:13:31.708Z,3.07
2022-11-14T22:16:21.280Z,3.07
2022-11-14T22:19:08.228Z,3.07
2022-11-14T22:21:56.487Z,4.57
2022-11-14T22:24:43.101Z,3.70
2022-11-14T22:27:29.839Z,4.37
2022-11-14T22:30:16.950Z,3.40
2022-11-14T22:33:03.492Z,3.30
2022-11-14T22:35:50.211Z,5.73
2022-11-14T22:38:39.203Z,3.53
2022-11-14T22:41:32.255Z,3.33
2022-11-14T22:44:19.950Z,9.43
2022-11-14T22:47:06.574Z,4.33
2022-11-14T22:49:53.275Z,4.27
2022-11-14T22:52:39.992Z,4.80
2022-11-14T22:55:28.120Z,9.30
2022-11-14T22:58:14.831Z,3.50
2022-11-14T23:01:02.070Z,7.73
2022-11-14T23:03:52.054Z,3.83
2022-11-14T23:06:38.907Z,3.93
2022-11-14T23:09:27.164Z,2.70
2022-11-14T23:12:15.707Z,2.80
2022-11-14T23:15:02.539Z,2.87
2022-11-14T23:17:49.293Z,2.23
2022-11-14T23:20:37.061Z,2.10
2022-11-14T23:23:24.158Z,2.57
2022-11-14T23:26:13.632Z,2.30
2022-11-14T23:29:02.087Z,2.73
2022-11-14T23:31:48.893Z,4.93
2022-11-14T23:34:35.504Z,12.43
2022-11-14T23:37:23.163Z,9.10
2022-11-14T23:40:11.876Z,4.20
2022-11-14T23:42:58.390Z,2.60
2022-11-14T23:45:48.178Z,3.00
2022-11-14T23:48:35.201Z,2.20
2022-11-14T23:51:21.867Z,2.20
2022-11-14T23:54:08.948Z,2.30
2022-11-14T23:56:58.832Z,2.50
2022-11-14T23:59:50.412Z,2.50
